LFML

Marseille Provence Airport

Code ICAO LFML
Code IATA MRS
Nom Marseille Provence Airport
Emplacement Marseille, Provence-Alpes-Cote-d'Azur, FR
Élévation 74 pieds / 22.6 mètres
Latitude 43.43927192
Longitude 5.22142410
METAR LFML 210600Z AUTO 01011KT 9999 FEW029/// SCT048/// OVC054/// //////CB 25/19 Q1008 TEMPO VRB15G25KT 4000 TSRA
Informations extras Afficher cartes
Piste Longueur Largeur Surface Élévation
13L 11483 ft 148 ft ASP 8 ft
13R 7776 ft 148 ft ASP 8 ft
31R 11483 ft 148 ft ASP 53 ft
31L 7776 ft 148 ft ASP 61 ft